createdAt,value
2023-02-04T00:01:15.620Z,2.30
2023-02-04T00:02:49.250Z,2.60
2023-02-04T00:04:22.348Z,2.97
2023-02-04T00:05:55.439Z,1.90
2023-02-04T00:07:28.515Z,2.37
2023-02-04T00:09:00.619Z,2.30
2023-02-04T00:10:33.964Z,1.10
2023-02-04T00:12:07.456Z,1.33
2023-02-04T00:13:40.537Z,1.17
2023-02-04T00:15:13.668Z,1.13
2023-02-04T00:16:48.101Z,1.17
2023-02-04T00:18:22.141Z,1.23
2023-02-04T00:19:55.327Z,1.30
2023-02-04T00:21:28.400Z,1.20
2023-02-04T00:23:01.565Z,1.03
2023-02-04T00:24:34.928Z,1.17
2023-02-04T00:26:08.024Z,1.30
2023-02-04T00:27:41.128Z,0.90
2023-02-04T00:29:14.166Z,0.90
2023-02-04T00:30:48.125Z,0.90
2023-02-04T00:32:22.583Z,1.00
2023-02-04T00:33:55.773Z,0.97
2023-02-04T00:35:29.102Z,0.73
2023-02-04T00:37:01.378Z,0.83
2023-02-04T00:38:34.456Z,0.70
2023-02-04T00:40:07.554Z,0.73
2023-02-04T00:41:40.823Z,0.80
2023-02-04T00:43:13.915Z,0.80
2023-02-04T00:44:47.248Z,0.80
2023-02-04T00:46:19.416Z,0.80
2023-02-04T00:47:53.872Z,0.90
2023-02-04T00:49:26.946Z,0.80
2023-02-04T00:51:00.127Z,0.90
2023-02-04T00:52:33.247Z,1.07
2023-02-04T00:54:06.794Z,0.80
2023-02-04T00:55:39.863Z,1.10
2023-02-04T00:57:12.966Z,1.10
2023-02-04T00:58:46.060Z,1.20
2023-02-04T01:00:19.621Z,1.20
2023-02-04T01:01:51.802Z,1.00
2023-02-04T01:03:26.350Z,1.10
2023-02-04T01:04:59.520Z,1.05
2023-02-04T01:06:32.619Z,1.27
2023-02-04T01:08:05.970Z,1.00
2023-02-04T01:09:39.015Z,1.20
2023-02-04T01:11:12.119Z,1.10
2023-02-04T01:12:45.438Z,1.30
2023-02-04T01:14:18.679Z,1.30
2023-02-04T01:15:50.880Z,1.10
2023-02-04T01:17:24.251Z,1.27
2023-02-04T01:18:58.885Z,1.03
2023-02-04T01:20:32.421Z,1.30
2023-02-04T01:22:05.613Z,1.20
2023-02-04T01:23:38.739Z,1.20
2023-02-04T01:25:13.816Z,0.90
2023-02-04T01:26:47.648Z,1.37
2023-02-04T01:28:20.786Z,1.33
2023-02-04T01:29:53.838Z,1.30
2023-02-04T01:31:27.138Z,1.38
2023-02-04T01:33:00.287Z,1.70
2023-02-04T01:34:34.779Z,1.40
2023-02-04T01:36:07.996Z,1.52
2023-02-04T01:37:42.040Z,1.75
2023-02-04T01:39:15.714Z,1.80
2023-02-04T01:40:49.557Z,2.00
2023-02-04T01:42:22.798Z,1.70
2023-02-04T01:43:56.174Z,1.70
2023-02-04T01:45:30.703Z,2.00
2023-02-04T01:47:04.049Z,1.80
2023-02-04T01:48:37.191Z,1.85
2023-02-04T01:50:15.554Z,1.90
2023-02-04T01:51:49.187Z,2.20
2023-02-04T01:53:24.566Z,2.00
2023-02-04T01:54:56.697Z,2.05
2023-02-04T01:56:32.304Z,2.40
2023-02-04T01:58:05.445Z,2.40
2023-02-04T01:59:42.396Z,2.42
2023-02-04T02:01:17.087Z,2.30
2023-02-04T02:02:51.920Z,2.25
2023-02-04T02:04:31.402Z,2.40
2023-02-04T02:06:11.606Z,2.53
2023-02-04T02:07:44.154Z,2.60
2023-02-04T02:09:17.585Z,2.55
2023-02-04T02:10:50.939Z,2.28
2023-02-04T02:12:23.133Z,2.10
2023-02-04T02:13:56.414Z,2.25
2023-02-04T02:15:29.627Z,2.10
2023-02-04T02:17:02.738Z,2.00
2023-02-04T02:18:35.877Z,1.85
2023-02-04T02:20:09.927Z,1.70
2023-02-04T02:21:53.184Z,2.10
2023-02-04T02:23:34.314Z,2.05
2023-02-04T02:25:12.478Z,1.80
2023-02-04T02:26:45.732Z,2.15
2023-02-04T02:28:21.745Z,1.98
2023-02-04T02:29:54.910Z,1.75
2023-02-04T02:31:28.180Z,1.90
2023-02-04T02:33:01.372Z,1.85
2023-02-04T02:34:34.554Z,2.20
2023-02-04T02:36:09.801Z,1.80
2023-02-04T02:37:43.052Z,2.00
2023-02-04T02:39:15.298Z,2.10
2023-02-04T02:40:51.123Z,1.73
2023-02-04T02:42:23.722Z,1.90
2023-02-04T02:43:56.910Z,1.90
2023-02-04T02:45:32.248Z,1.70
2023-02-04T02:47:05.523Z,1.90
2023-02-04T02:48:38.641Z,2.20
2023-02-04T02:50:16.855Z,2.10
2023-02-04T02:51:50.840Z,2.20
2023-02-04T02:53:24.056Z,2.03
2023-02-04T02:54:57.328Z,2.40
2023-02-04T02:56:30.844Z,1.90
2023-02-04T02:58:06.014Z,2.37
2023-02-04T02:59:39.082Z,2.38
2023-02-04T03:01:12.765Z,2.33
2023-02-04T03:02:48.187Z,2.60
2023-02-04T03:04:22.979Z,2.20
2023-02-04T03:06:00.124Z,2.27
2023-02-04T03:07:33.369Z,2.40
2023-02-04T03:09:05.656Z,2.50
2023-02-04T03:10:38.821Z,2.40
2023-02-04T03:12:13.989Z,2.20
2023-02-04T03:13:47.202Z,2.30
2023-02-04T03:15:19.436Z,2.20
2023-02-04T03:16:54.003Z,2.33
2023-02-04T03:18:28.045Z,2.17
2023-02-04T03:20:01.468Z,2.70
2023-02-04T03:21:35.253Z,2.30
2023-02-04T03:23:09.594Z,2.40
2023-02-04T03:24:42.949Z,2.50
2023-02-04T03:26:16.423Z,2.20
2023-02-04T03:27:51.031Z,2.33
2023-02-04T03:29:24.229Z,2.50
2023-02-04T03:30:57.547Z,2.53
2023-02-04T03:32:29.699Z,2.55
2023-02-04T03:34:02.770Z,2.50
2023-02-04T03:35:35.887Z,2.40
2023-02-04T03:37:09.107Z,2.50
2023-02-04T03:38:41.355Z,2.77
2023-02-04T03:40:14.857Z,2.30
2023-02-04T03:41:47.953Z,2.23
2023-02-04T03:43:22.410Z,2.10
2023-02-04T03:44:55.543Z,2.30
2023-02-04T03:46:28.769Z,2.40
2023-02-04T03:48:01.966Z,2.53
2023-02-04T03:49:35.892Z,1.98
2023-02-04T03:51:08.985Z,1.93
2023-02-04T03:52:41.114Z,2.53
2023-02-04T03:54:14.203Z,2.83
2023-02-04T03:55:47.296Z,3.55
2023-02-04T03:57:20.892Z,3.30
2023-02-04T03:58:55.374Z,2.80
2023-02-04T04:00:28.469Z,2.60
2023-02-04T04:02:01.659Z,2.53
2023-02-04T04:03:34.825Z,2.80
2023-02-04T04:05:08.924Z,2.80
2023-02-04T04:06:41.979Z,2.50
2023-02-04T04:08:15.076Z,2.40
2023-02-04T04:09:48.144Z,2.40
2023-02-04T04:11:21.981Z,2.40
2023-02-04T04:12:55.070Z,2.50
2023-02-04T04:14:29.534Z,2.50
2023-02-04T04:16:03.542Z,2.08
2023-02-04T04:17:36.651Z,2.05
2023-02-04T04:19:09.807Z,2.25
2023-02-04T04:20:42.865Z,2.35
2023-02-04T04:22:15.067Z,2.42
2023-02-04T04:23:48.159Z,2.38
2023-02-04T04:25:21.209Z,2.53
2023-02-04T04:26:54.317Z,2.58
2023-02-04T04:28:27.400Z,2.70
2023-02-04T04:30:02.017Z,2.70
2023-02-04T04:31:34.209Z,2.20
2023-02-04T04:33:07.363Z,2.22
2023-02-04T04:34:39.504Z,2.10
2023-02-04T04:36:12.876Z,2.20
2023-02-04T04:37:45.974Z,1.88
2023-02-04T04:39:19.071Z,2.20
2023-02-04T04:40:52.191Z,2.00
2023-02-04T04:42:24.291Z,2.10
2023-02-04T04:43:57.355Z,2.00
2023-02-04T04:45:31.813Z,1.90
2023-02-04T04:47:04.920Z,1.90
2023-02-04T04:48:38.042Z,1.90
2023-02-04T04:50:10.409Z,1.65
2023-02-04T04:51:43.508Z,2.05
2023-02-04T04:53:16.581Z,1.90
2023-02-04T04:54:49.677Z,1.80
2023-02-04T04:56:22.739Z,1.83
2023-02-04T04:57:55.858Z,1.83
2023-02-04T04:59:28.956Z,1.73
2023-02-04T05:01:03.525Z,1.73
2023-02-04T05:02:36.629Z,1.83
2023-02-04T05:04:09.744Z,1.60
2023-02-04T05:05:42.831Z,1.60
2023-02-04T05:07:14.952Z,1.58
2023-02-04T05:08:48.022Z,1.88
2023-02-04T05:10:21.785Z,1.60
2023-02-04T05:11:54.891Z,1.63
2023-02-04T05:13:27.924Z,1.70
2023-02-04T05:15:01.038Z,1.50
2023-02-04T05:16:35.479Z,1.73
2023-02-04T05:18:08.577Z,1.73
2023-02-04T05:19:41.704Z,1.70
2023-02-04T05:21:14.865Z,1.58
2023-02-04T05:22:47.991Z,2.00
2023-02-04T05:24:21.072Z,2.10
2023-02-04T05:25:54.124Z,1.80
2023-02-04T05:27:27.213Z,1.80
2023-02-04T05:29:01.392Z,1.70
2023-02-04T05:30:35.032Z,1.80
2023-02-04T05:32:09.664Z,1.77
2023-02-04T05:33:41.776Z,1.90
2023-02-04T05:35:14.890Z,1.90
2023-02-04T05:36:47.946Z,1.80
2023-02-04T05:38:20.062Z,1.90
2023-02-04T05:39:53.155Z,1.75
2023-02-04T05:41:26.245Z,1.77
2023-02-04T05:42:59.293Z,2.10
2023-02-04T05:44:32.363Z,1.98
2023-02-04T05:46:05.633Z,1.80
2023-02-04T05:47:40.386Z,2.25
2023-02-04T05:49:13.702Z,2.10
2023-02-04T05:50:46.802Z,2.40
2023-02-04T05:52:19.948Z,2.40
2023-02-04T05:53:52.996Z,2.67
2023-02-04T05:55:26.096Z,2.83
2023-02-04T05:56:59.249Z,3.30
2023-02-04T05:58:33.617Z,3.17
2023-02-04T06:00:08.070Z,3.13
2023-02-04T06:01:46.867Z,2.95
2023-02-04T06:03:21.663Z,3.50
2023-02-04T06:04:54.776Z,3.17
2023-02-04T06:06:27.840Z,2.90
2023-02-04T06:08:00.957Z,2.83
2023-02-04T06:09:34.112Z,3.17
2023-02-04T06:11:07.376Z,3.10
2023-02-04T06:12:40.535Z,2.72
2023-02-04T06:14:13.611Z,2.60
2023-02-04T06:15:46.798Z,2.90
2023-02-04T06:17:19.838Z,3.03
2023-02-04T06:18:54.400Z,2.80
2023-02-04T06:20:27.633Z,2.75
2023-02-04T06:22:00.791Z,3.53
2023-02-04T06:23:34.644Z,2.70
2023-02-04T06:25:08.631Z,2.85
2023-02-04T06:26:41.721Z,2.90
2023-02-04T06:28:14.824Z,2.80
2023-02-04T06:29:47.940Z,3.00
2023-02-04T06:31:21.108Z,2.50
2023-02-04T06:32:53.267Z,2.88
2023-02-04T06:34:27.759Z,2.80
2023-02-04T06:36:00.827Z,2.65
2023-02-04T06:37:33.939Z,2.60
2023-02-04T06:39:06.993Z,2.40
2023-02-04T06:40:40.111Z,2.50
2023-02-04T06:42:13.182Z,2.47
2023-02-04T06:43:46.269Z,3.05
2023-02-04T06:45:19.472Z,3.60
2023-02-04T06:46:52.575Z,3.10
2023-02-04T06:48:25.730Z,3.42
2023-02-04T06:50:00.211Z,2.83
2023-02-04T06:51:34.095Z,2.80
2023-02-04T06:53:07.398Z,2.83
2023-02-04T06:54:40.496Z,2.53
2023-02-04T06:56:13.680Z,3.05
2023-02-04T06:57:46.746Z,2.67
2023-02-04T06:59:20.001Z,3.03
2023-02-04T07:00:53.094Z,3.17
2023-02-04T07:02:26.253Z,2.72
2023-02-04T07:03:59.328Z,2.60
2023-02-04T07:05:33.806Z,3.28
2023-02-04T07:07:07.090Z,2.88
2023-02-04T07:08:40.173Z,2.65
2023-02-04T07:10:12.333Z,2.78
2023-02-04T07:11:45.415Z,2.80
2023-02-04T07:13:18.537Z,3.00
2023-02-04T07:14:51.579Z,2.75
2023-02-04T07:16:28.080Z,2.35
2023-02-04T07:18:01.484Z,2.30
2023-02-04T07:19:36.152Z,2.58
2023-02-04T07:21:09.595Z,2.25
2023-02-04T07:22:42.680Z,2.30
2023-02-04T07:24:15.793Z,2.60
2023-02-04T07:25:49.094Z,2.35
2023-02-04T07:27:22.195Z,2.28
2023-02-04T07:28:55.312Z,2.15
2023-02-04T07:30:28.675Z,2.25
2023-02-04T07:32:02.139Z,2.25
2023-02-04T07:33:34.291Z,2.40
2023-02-04T07:35:08.315Z,2.15
2023-02-04T07:36:42.841Z,2.00
2023-02-04T07:38:15.928Z,2.40
2023-02-04T07:39:48.972Z,2.45
2023-02-04T07:41:22.428Z,2.27
2023-02-04T07:42:55.498Z,2.58
2023-02-04T07:44:29.844Z,2.53
2023-02-04T07:46:02.916Z,2.40
2023-02-04T07:47:36.009Z,2.15
2023-02-04T07:49:08.067Z,2.00
2023-02-04T07:50:41.424Z,2.65
2023-02-04T07:52:15.835Z,2.03
2023-02-04T07:53:49.130Z,2.05
2023-02-04T07:55:22.307Z,1.98
2023-02-04T07:56:55.381Z,2.20
2023-02-04T07:58:28.436Z,2.55
2023-02-04T08:00:01.946Z,2.70
2023-02-04T08:01:35.200Z,2.35
2023-02-04T08:03:08.460Z,2.47
2023-02-04T08:04:41.617Z,2.90
2023-02-04T08:06:13.731Z,3.10
2023-02-04T08:07:48.263Z,3.13
2023-02-04T08:09:21.393Z,2.65
2023-02-04T08:10:54.460Z,2.80
2023-02-04T08:12:27.692Z,2.72
2023-02-04T08:14:00.792Z,3.00
2023-02-04T08:15:33.928Z,2.92
2023-02-04T08:17:07.002Z,2.80
2023-02-04T08:18:40.150Z,2.90
2023-02-04T08:20:12.719Z,2.72
2023-02-04T08:21:45.998Z,2.88
2023-02-04T08:23:20.497Z,2.78
2023-02-04T08:24:52.628Z,2.90
2023-02-04T08:26:25.786Z,3.25
2023-02-04T08:27:58.943Z,2.85
2023-02-04T08:29:32.095Z,3.28
2023-02-04T08:31:05.552Z,3.22
2023-02-04T08:32:39.288Z,3.15
2023-02-04T08:34:12.480Z,3.08
2023-02-04T08:35:45.568Z,3.00
2023-02-04T08:37:18.749Z,3.20
2023-02-04T08:38:53.194Z,3.50
2023-02-04T08:40:26.662Z,3.45
2023-02-04T08:41:59.811Z,3.53
2023-02-04T08:43:32.977Z,3.25
2023-02-04T08:45:06.580Z,3.47
2023-02-04T08:46:39.896Z,3.90
2023-02-04T08:48:13.002Z,3.45
2023-02-04T08:49:46.361Z,3.30
2023-02-04T08:51:19.620Z,3.33
2023-02-04T08:52:52.666Z,2.90
2023-02-04T08:54:27.257Z,3.05
2023-02-04T08:56:00.434Z,3.15
2023-02-04T08:57:34.981Z,3.10
2023-02-04T08:59:08.110Z,3.65
2023-02-04T09:00:40.262Z,3.47
2023-02-04T09:02:13.594Z,3.90
2023-02-04T09:03:47.028Z,3.40
2023-02-04T09:05:20.223Z,3.47
2023-02-04T09:06:53.433Z,3.47
2023-02-04T09:08:27.793Z,3.70
2023-02-04T09:10:02.229Z,3.80
2023-02-04T09:11:35.842Z,3.63
2023-02-04T09:13:11.683Z,4.25
2023-02-04T09:14:44.851Z,3.95
2023-02-04T09:16:18.601Z,3.87
2023-02-04T09:17:53.799Z,3.70
2023-02-04T09:19:27.282Z,3.97
2023-02-04T09:21:00.861Z,3.40
2023-02-04T09:22:33.907Z,3.13
2023-02-04T09:24:07.022Z,3.30
2023-02-04T09:25:42.773Z,3.78
2023-02-04T09:27:15.924Z,3.35
2023-02-04T09:28:49.050Z,3.97
2023-02-04T09:30:22.319Z,4.55
2023-02-04T09:31:55.458Z,3.83
2023-02-04T09:33:28.658Z,4.30
2023-02-04T09:35:01.702Z,4.10
2023-02-04T09:36:38.115Z,3.80
2023-02-04T09:38:11.252Z,3.28
2023-02-04T09:39:44.444Z,3.07
2023-02-04T09:41:18.901Z,3.10
2023-02-04T09:42:53.197Z,3.70
2023-02-04T09:44:28.834Z,2.90
2023-02-04T09:46:02.350Z,3.07
2023-02-04T09:47:35.519Z,3.40
2023-02-04T09:49:11.407Z,3.20
2023-02-04T09:50:44.532Z,2.57
2023-02-04T09:52:19.846Z,2.43
2023-02-04T09:53:54.905Z,2.70
2023-02-04T09:55:32.875Z,2.50
2023-02-04T09:57:14.693Z,2.90
2023-02-04T09:58:47.813Z,3.03
2023-02-04T10:00:23.397Z,3.30
2023-02-04T10:01:59.082Z,2.70
2023-02-04T10:03:32.252Z,2.73
2023-02-04T10:05:05.626Z,3.30
2023-02-04T10:06:38.771Z,3.20
2023-02-04T10:08:15.214Z,2.93
2023-02-04T10:09:49.660Z,3.00
2023-02-04T10:11:24.712Z,2.80
2023-02-04T10:13:01.408Z,2.83
2023-02-04T10:14:34.541Z,2.50
2023-02-04T10:16:15.190Z,2.50
2023-02-04T10:17:49.822Z,2.47
2023-02-04T10:19:23.696Z,2.70
2023-02-04T10:21:01.227Z,3.00
2023-02-04T10:22:34.739Z,5.70
2023-02-04T10:24:12.206Z,4.93
2023-02-04T10:25:45.623Z,3.87
2023-02-04T10:27:18.713Z,2.83
2023-02-04T10:29:00.162Z,3.93
2023-02-04T10:30:41.229Z,4.97
2023-02-04T10:32:31.843Z,2.80
2023-02-04T10:34:06.553Z,2.93
2023-02-04T10:35:47.303Z,2.80
2023-02-04T10:37:22.508Z,2.90
2023-02-04T10:39:01.304Z,3.17
2023-02-04T10:40:36.308Z,2.60
2023-02-04T10:42:22.441Z,3.10
2023-02-04T10:44:05.045Z,2.80
2023-02-04T10:45:38.396Z,2.77
2023-02-04T10:47:18.509Z,3.00
2023-02-04T10:48:51.664Z,2.93
2023-02-04T10:50:26.220Z,2.50
2023-02-04T10:51:59.448Z,3.00
2023-02-04T10:53:49.779Z,2.60
2023-02-04T10:55:24.984Z,2.43
2023-02-04T10:56:59.421Z,3.00
2023-02-04T10:58:33.486Z,19.93
2023-02-04T11:00:17.497Z,13.90
2023-02-04T11:01:50.824Z,3.07
2023-02-04T11:03:25.477Z,3.80
2023-02-04T11:04:58.853Z,2.87
2023-02-04T11:06:31.908Z,2.80
2023-02-04T11:08:21.514Z,2.80
2023-02-04T11:09:54.807Z,2.73
2023-02-04T11:11:28.069Z,2.70
2023-02-04T11:13:03.680Z,3.10
2023-02-04T11:14:36.836Z,2.73
2023-02-04T11:16:25.084Z,2.50
2023-02-04T11:18:05.354Z,2.70
2023-02-04T11:19:40.008Z,2.50
2023-02-04T11:21:19.213Z,2.60
2023-02-04T11:22:54.689Z,2.80
2023-02-04T11:24:34.663Z,2.70
2023-02-04T11:26:13.200Z,3.70
2023-02-04T11:27:46.384Z,3.43
2023-02-04T11:29:34.648Z,3.13
2023-02-04T11:31:26.546Z,3.03
2023-02-04T11:33:04.923Z,2.80
2023-02-04T11:34:49.781Z,2.90
2023-02-04T11:36:22.835Z,2.30
2023-02-04T11:37:56.667Z,2.50
2023-02-04T11:39:33.501Z,2.10
2023-02-04T11:41:07.147Z,2.30
2023-02-04T11:42:42.434Z,2.00
2023-02-04T11:44:16.811Z,2.60
2023-02-04T11:45:50.145Z,2.63
2023-02-04T11:47:27.367Z,2.50
2023-02-04T11:49:01.594Z,2.80
2023-02-04T11:50:38.578Z,2.90
2023-02-04T11:52:15.616Z,3.20
2023-02-04T11:53:52.852Z,3.20
2023-02-04T11:55:26.878Z,3.27
2023-02-04T11:57:01.246Z,3.13
2023-02-04T11:58:34.801Z,3.70
2023-02-04T12:00:13.771Z,3.57
2023-02-04T12:01:46.873Z,3.80
2023-02-04T12:03:28.604Z,2.40
2023-02-04T12:05:12.539Z,2.13
2023-02-04T12:06:46.044Z,2.20
2023-02-04T12:08:33.982Z,2.47
2023-02-04T12:10:24.381Z,2.70
2023-02-04T12:11:59.782Z,2.33
2023-02-04T12:13:33.295Z,2.83
2023-02-04T12:15:16.106Z,1.80
2023-02-04T12:16:51.425Z,2.13
2023-02-04T12:18:27.770Z,2.20
2023-02-04T12:20:00.873Z,2.00
2023-02-04T12:21:34.023Z,2.10
2023-02-04T12:23:08.596Z,1.80
2023-02-04T12:24:41.690Z,2.17
2023-02-04T12:26:14.755Z,2.17
2023-02-04T12:27:47.889Z,2.67
2023-02-04T12:29:20.957Z,2.80
2023-02-04T12:30:54.162Z,2.87
2023-02-04T12:32:27.298Z,3.03
2023-02-04T12:34:02.417Z,3.17
2023-02-04T12:35:35.660Z,2.90
2023-02-04T12:37:09.027Z,3.00
2023-02-04T12:38:42.095Z,3.10
2023-02-04T12:40:17.272Z,2.87
2023-02-04T12:41:50.367Z,3.13
2023-02-04T12:43:23.464Z,3.07
2023-02-04T12:44:56.523Z,2.90
2023-02-04T12:46:30.305Z,2.80
2023-02-04T12:48:03.555Z,2.37
2023-02-04T12:49:38.715Z,2.90
2023-02-04T12:51:11.753Z,2.90
2023-02-04T12:52:44.928Z,2.10
2023-02-04T12:54:18.014Z,2.20
2023-02-04T12:55:51.577Z,2.10
2023-02-04T12:57:24.688Z,1.77
2023-02-04T12:58:58.056Z,2.20
2023-02-04T13:00:31.224Z,2.10
2023-02-04T13:02:04.384Z,1.83
2023-02-04T13:03:37.460Z,1.77
2023-02-04T13:05:12.204Z,1.53
2023-02-04T13:06:45.327Z,1.47
2023-02-04T13:08:18.378Z,1.73
2023-02-04T13:09:52.324Z,2.00
2023-02-04T13:11:25.381Z,2.03
2023-02-04T13:13:01.105Z,1.97
2023-02-04T13:14:35.002Z,2.30
2023-02-04T13:16:08.565Z,1.70
2023-02-04T13:17:41.660Z,1.30
2023-02-04T13:19:14.732Z,1.10
2023-02-04T13:20:49.458Z,1.60
2023-02-04T13:22:22.637Z,2.30
2023-02-04T13:23:57.288Z,1.20
2023-02-04T13:25:30.637Z,1.43
2023-02-04T13:27:03.836Z,1.20
2023-02-04T13:28:36.939Z,1.57
2023-02-04T13:30:15.130Z,1.43
2023-02-04T13:31:48.282Z,1.13
2023-02-04T13:33:21.398Z,1.50
2023-02-04T13:34:54.620Z,1.20
2023-02-04T13:36:30.379Z,1.40
2023-02-04T13:38:03.496Z,1.67
2023-02-04T13:39:36.547Z,1.40
2023-02-04T13:41:09.781Z,1.80
2023-02-04T13:42:42.876Z,1.10
2023-02-04T13:44:15.986Z,1.00
2023-02-04T13:45:49.162Z,1.33
2023-02-04T13:47:22.753Z,1.40
2023-02-04T13:48:56.206Z,1.30
2023-02-04T13:50:29.331Z,1.57
2023-02-04T13:52:03.785Z,1.80
2023-02-04T13:53:36.896Z,1.17
2023-02-04T13:55:10.375Z,1.43
2023-02-04T13:56:43.476Z,1.23
2023-02-04T13:58:16.564Z,1.10
2023-02-04T13:59:49.682Z,1.10
2023-02-04T14:01:22.823Z,1.10
2023-02-04T14:02:56.548Z,1.20
2023-02-04T14:04:29.683Z,0.90
2023-02-04T14:06:02.776Z,1.10
2023-02-04T14:07:37.199Z,1.13
2023-02-04T14:09:11.080Z,1.17
2023-02-04T14:10:44.369Z,1.17
2023-02-04T14:12:17.441Z,1.17
2023-02-04T14:13:50.569Z,1.40
2023-02-04T14:15:23.665Z,1.10
2023-02-04T14:16:56.853Z,1.00
2023-02-04T14:18:30.011Z,1.20
2023-02-04T14:20:05.423Z,1.20
2023-02-04T14:21:38.553Z,1.57
2023-02-04T14:23:13.085Z,1.00
2023-02-04T14:24:47.541Z,1.30
2023-02-04T14:26:22.569Z,0.73
2023-02-04T14:27:57.739Z,0.80
2023-02-04T14:29:32.324Z,0.93
2023-02-04T14:31:05.731Z,0.90
2023-02-04T14:32:38.814Z,0.90
2023-02-04T14:34:11.962Z,1.13
2023-02-04T14:35:45.286Z,1.10
2023-02-04T14:37:18.413Z,0.90
2023-02-04T14:38:54.025Z,1.00
2023-02-04T14:40:27.117Z,1.10
2023-02-04T14:42:00.750Z,1.50
2023-02-04T14:43:37.376Z,1.67
2023-02-04T14:45:13.257Z,1.30
2023-02-04T14:46:48.139Z,1.27
2023-02-04T14:48:21.293Z,1.10
2023-02-04T14:49:54.356Z,1.10
2023-02-04T14:51:27.536Z,1.10
2023-02-04T14:53:00.607Z,1.50
2023-02-04T14:54:35.142Z,1.60
2023-02-04T14:56:08.429Z,1.63
2023-02-04T14:57:41.539Z,1.73
2023-02-04T14:59:14.622Z,1.30
2023-02-04T15:00:47.780Z,1.40
2023-02-04T15:02:20.932Z,1.30
2023-02-04T15:03:54.590Z,1.10
2023-02-04T15:05:27.707Z,1.90
2023-02-04T15:07:00.921Z,1.23
2023-02-04T15:08:34.065Z,1.30
2023-02-04T15:10:10.009Z,1.40
2023-02-04T15:11:43.122Z,1.83
2023-02-04T15:13:16.241Z,1.50
2023-02-04T15:14:49.484Z,1.17
2023-02-04T15:16:22.748Z,1.20
2023-02-04T15:17:56.022Z,1.10
2023-02-04T15:19:29.410Z,1.33
2023-02-04T15:21:02.948Z,1.40
2023-02-04T15:22:36.199Z,1.40
2023-02-04T15:24:09.349Z,1.10
2023-02-04T15:25:43.927Z,1.27
2023-02-04T15:27:17.038Z,1.10
2023-02-04T15:28:50.182Z,1.40
2023-02-04T15:30:23.389Z,1.30
2023-02-04T15:31:56.736Z,1.30
2023-02-04T15:33:29.894Z,2.00
2023-02-04T15:35:03.043Z,1.50
2023-02-04T15:36:36.127Z,1.43
2023-02-04T15:38:09.232Z,1.30
2023-02-04T15:39:43.669Z,1.50
2023-02-04T15:41:18.270Z,1.70
2023-02-04T15:42:52.975Z,1.63
2023-02-04T15:44:27.039Z,1.50
2023-02-04T15:46:00.140Z,1.80
2023-02-04T15:47:33.306Z,2.30
2023-02-04T15:49:06.440Z,2.10
2023-02-04T15:50:40.470Z,1.20
2023-02-04T15:52:23.794Z,1.20
2023-02-04T15:53:57.995Z,0.80
2023-02-04T15:55:31.561Z,1.10
2023-02-04T15:57:06.010Z,1.13
2023-02-04T15:58:39.920Z,0.87
2023-02-04T16:00:14.081Z,1.10
2023-02-04T16:01:47.140Z,1.13
2023-02-04T16:03:20.329Z,0.87
2023-02-04T16:04:53.448Z,1.10
2023-02-04T16:06:26.680Z,1.23
2023-02-04T16:07:59.805Z,1.20
2023-02-04T16:09:32.884Z,1.10
2023-02-04T16:11:06.314Z,1.10
2023-02-04T16:12:40.831Z,1.30
2023-02-04T16:14:13.982Z,1.20
2023-02-04T16:15:47.142Z,1.10
2023-02-04T16:17:20.247Z,1.50
2023-02-04T16:18:53.381Z,1.60
2023-02-04T16:20:26.503Z,1.70
2023-02-04T16:21:59.671Z,1.57
2023-02-04T16:23:32.698Z,2.90
2023-02-04T16:25:06.778Z,1.60
2023-02-04T16:26:39.822Z,2.10
2023-02-04T16:28:14.298Z,1.42
2023-02-04T16:29:47.553Z,1.63
2023-02-04T16:31:20.768Z,1.55
2023-02-04T16:32:53.947Z,1.90
2023-02-04T16:34:27.065Z,1.90
2023-02-04T16:36:01.889Z,1.87
2023-02-04T16:37:35.257Z,1.73
2023-02-04T16:39:08.441Z,1.77
2023-02-04T16:40:41.572Z,1.67
2023-02-04T16:42:14.647Z,2.00
2023-02-04T16:43:49.343Z,1.93
2023-02-04T16:45:24.221Z,1.93
2023-02-04T16:46:57.536Z,1.63
2023-02-04T16:48:30.649Z,1.80
2023-02-04T16:50:03.764Z,2.13
2023-02-04T16:51:36.885Z,3.08
2023-02-04T16:53:14.896Z,3.50
2023-02-04T16:54:47.939Z,2.20
2023-02-04T16:56:21.110Z,2.03
2023-02-04T16:57:54.176Z,1.87
2023-02-04T16:59:29.162Z,1.70
2023-02-04T17:01:02.250Z,5.63
2023-02-04T17:02:37.268Z,3.20
2023-02-04T17:04:10.447Z,2.90
2023-02-04T17:05:43.943Z,2.30
2023-02-04T17:07:17.060Z,1.63
2023-02-04T17:08:50.145Z,1.80
2023-02-04T17:10:43.862Z,2.30
2023-02-04T17:12:15.903Z,3.20
2023-02-04T17:13:49.016Z,2.22
2023-02-04T17:15:23.483Z,2.53
2023-02-04T17:16:56.577Z,2.50
2023-02-04T17:18:30.470Z,2.42
2023-02-04T17:20:04.098Z,2.05
2023-02-04T17:21:38.661Z,1.73
2023-02-04T17:23:12.083Z,2.20
2023-02-04T17:24:45.148Z,1.98
2023-02-04T17:26:18.983Z,2.33
2023-02-04T17:27:53.001Z,1.70
2023-02-04T17:29:26.085Z,1.73
2023-02-04T17:31:00.682Z,2.00
2023-02-04T17:32:34.597Z,2.20
2023-02-04T17:34:07.985Z,2.10
2023-02-04T17:35:41.052Z,2.00
2023-02-04T17:37:14.108Z,2.72
2023-02-04T17:38:47.202Z,2.55
2023-02-04T17:40:20.398Z,2.33
2023-02-04T17:41:53.464Z,2.78
2023-02-04T17:43:26.817Z,3.10
2023-02-04T17:44:59.909Z,3.60
2023-02-04T17:46:35.416Z,3.00
2023-02-04T17:48:08.725Z,2.80
2023-02-04T17:49:41.805Z,3.60
2023-02-04T17:51:14.927Z,4.88
2023-02-04T17:52:48.917Z,6.97
2023-02-04T17:54:21.993Z,6.45
2023-02-04T17:55:55.101Z,5.63
2023-02-04T17:57:28.491Z,5.53
2023-02-04T17:59:01.712Z,4.72
2023-02-04T18:00:35.306Z,5.25
2023-02-04T18:02:16.621Z,3.80
2023-02-04T18:03:49.978Z,2.92
2023-02-04T18:05:25.056Z,3.30
2023-02-04T18:06:58.120Z,3.17
2023-02-04T18:08:37.814Z,3.90
2023-02-04T18:10:19.243Z,3.47
2023-02-04T18:11:52.316Z,3.10
2023-02-04T18:13:26.758Z,3.13
2023-02-04T18:15:00.387Z,3.20
2023-02-04T18:16:36.778Z,3.53
2023-02-04T18:18:22.109Z,3.00
2023-02-04T18:19:55.286Z,3.30
2023-02-04T18:21:30.303Z,3.10
2023-02-04T18:23:05.386Z,3.17
2023-02-04T18:24:40.422Z,3.03
2023-02-04T18:26:17.816Z,3.70
2023-02-04T18:27:51.138Z,3.13
2023-02-04T18:29:33.635Z,3.22
2023-02-04T18:31:25.974Z,2.97
2023-02-04T18:32:59.553Z,2.85
2023-02-04T18:34:38.231Z,2.92
2023-02-04T18:36:15.335Z,3.45
2023-02-04T18:37:50.723Z,3.33
2023-02-04T18:39:28.696Z,3.13
2023-02-04T18:41:15.040Z,2.92
2023-02-04T18:42:48.403Z,3.45
2023-02-04T18:44:32.541Z,3.10
2023-02-04T18:46:23.031Z,3.10
2023-02-04T18:47:58.165Z,2.83
2023-02-04T18:49:36.953Z,3.03
2023-02-04T18:51:23.465Z,3.22
2023-02-04T18:52:57.056Z,2.65
2023-02-04T18:54:35.770Z,3.20
2023-02-04T18:56:13.624Z,2.78
2023-02-04T18:57:46.695Z,2.90
2023-02-04T18:59:20.536Z,3.30
2023-02-04T19:00:59.456Z,3.38
2023-02-04T19:02:36.777Z,3.30
2023-02-04T19:04:18.566Z,3.42
2023-02-04T19:05:54.148Z,3.55
2023-02-04T19:07:28.872Z,3.42
2023-02-04T19:09:09.680Z,4.38
2023-02-04T19:10:43.523Z,4.47
2023-02-04T19:12:22.214Z,5.00
2023-02-04T19:13:58.231Z,5.18
2023-02-04T19:15:39.528Z,5.40
2023-02-04T19:17:25.172Z,5.55
2023-02-04T19:18:58.604Z,5.60
2023-02-04T19:20:32.204Z,5.28
2023-02-04T19:22:19.511Z,6.43
2023-02-04T19:23:59.810Z,6.25
2023-02-04T19:25:35.745Z,6.68
2023-02-04T19:27:26.674Z,7.00
2023-02-04T19:28:59.766Z,6.57
2023-02-04T19:30:45.550Z,6.60
2023-02-04T19:32:30.438Z,6.25
2023-02-04T19:34:22.460Z,6.35
2023-02-04T19:35:55.722Z,6.20
2023-02-04T19:37:39.893Z,6.90
2023-02-04T19:39:28.787Z,5.93
2023-02-04T19:41:01.888Z,4.75
2023-02-04T19:42:36.829Z,5.43
2023-02-04T19:44:33.479Z,5.03
2023-02-04T19:46:19.560Z,5.00
2023-02-04T19:47:54.425Z,5.13
2023-02-04T19:49:30.674Z,5.45
2023-02-04T19:51:18.096Z,5.43
2023-02-04T19:52:56.150Z,4.88
2023-02-04T19:54:39.007Z,5.57
2023-02-04T19:56:30.465Z,5.20
2023-02-04T19:58:14.750Z,5.78
2023-02-04T19:59:47.858Z,5.20
2023-02-04T20:01:21.602Z,5.22
2023-02-04T20:02:53.706Z,5.55
2023-02-04T20:04:26.746Z,5.10
2023-02-04T20:06:02.935Z,5.38
2023-02-04T20:07:39.492Z,6.40
2023-02-04T20:09:18.310Z,5.50
2023-02-04T20:10:51.475Z,6.40
2023-02-04T20:12:24.507Z,7.03
2023-02-04T20:14:15.485Z,7.80
2023-02-04T20:15:48.630Z,6.95
2023-02-04T20:17:38.221Z,5.72
2023-02-04T20:19:18.496Z,4.85
2023-02-04T20:20:52.275Z,4.80
2023-02-04T20:22:45.990Z,4.55
2023-02-04T20:24:20.438Z,4.40
2023-02-04T20:25:53.549Z,4.95
2023-02-04T20:27:27.443Z,4.10
2023-02-04T20:29:00.557Z,4.38
2023-02-04T20:30:33.753Z,4.28
2023-02-04T20:32:17.480Z,4.28
2023-02-04T20:33:52.694Z,3.80
2023-02-04T20:36:10.303Z,3.70
2023-02-04T20:37:44.443Z,4.30
2023-02-04T20:39:38.939Z,3.75
2023-02-04T20:41:18.405Z,3.70
2023-02-04T20:42:53.186Z,3.15
2023-02-04T20:44:28.548Z,3.30
2023-02-04T20:46:04.749Z,3.35
2023-02-04T20:47:37.953Z,3.60
2023-02-04T20:49:24.268Z,3.20
2023-02-04T20:50:58.562Z,3.17
2023-02-04T20:53:11.076Z,3.20
2023-02-04T20:54:45.487Z,3.10
2023-02-04T20:56:25.222Z,3.13
2023-02-04T20:58:16.801Z,2.92
2023-02-04T20:59:50.334Z,2.90
2023-02-04T21:01:30.765Z,2.72
2023-02-04T21:03:35.090Z,2.53